sensor_id;sensor_type;location;lat;lon;timestamp;P1;durP1;ratioP1;P2;durP2;ratioP2
3274;SDS011;1649;53.672;10.064;2023-04-01T00:01:06;24.60;;;10.03;;
3274;SDS011;1649;53.672;10.064;2023-04-01T00:03:32;25.53;;;10.10;;
3274;SDS011;1649;53.672;10.064;2023-04-01T00:05:59;14.80;;;9.30;;
3274;SDS011;1649;53.672;10.064;2023-04-01T00:08:26;18.20;;;9.20;;
3274;SDS011;1649;53.672;10.064;2023-04-01T00:10:52;14.90;;;9.10;;
3274;SDS011;1649;53.672;10.064;2023-04-01T00:13:18;19.70;;;9.20;;
3274;SDS011;1649;53.672;10.064;2023-04-01T00:15:44;16.87;;;8.73;;
3274;SDS011;1649;53.672;10.064;2023-04-01T00:18:09;18.97;;;9.20;;
3274;SDS011;1649;53.672;10.064;2023-04-01T00:20:35;17.87;;;9.10;;
3274;SDS011;1649;53.672;10.064;2023-04-01T00:23:01;17.30;;;8.93;;
3274;SDS011;1649;53.672;10.064;2023-04-01T00:25:27;18.87;;;9.40;;
3274;SDS011;1649;53.672;10.064;2023-04-01T00:27:52;15.23;;;8.97;;
3274;SDS011;1649;53.672;10.064;2023-04-01T00:30:18;18.07;;;8.63;;
3274;SDS011;1649;53.672;10.064;2023-04-01T00:32:43;15.00;;;8.07;;
3274;SDS011;1649;53.672;10.064;2023-04-01T00:35:09;18.40;;;8.93;;
3274;SDS011;1649;53.672;10.064;2023-04-01T00:37:36;14.00;;;8.73;;
3274;SDS011;1649;53.672;10.064;2023-04-01T00:40:03;21.33;;;9.47;;
3274;SDS011;1649;53.672;10.064;2023-04-01T00:42:30;19.50;;;8.97;;
3274;SDS011;1649;53.672;10.064;2023-04-01T00:44:55;24.23;;;9.80;;
3274;SDS011;1649;53.672;10.064;2023-04-01T00:47:22;15.53;;;8.50;;
3274;SDS011;1649;53.672;10.064;2023-04-01T00:49:49;22.77;;;8.93;;
3274;SDS011;1649;53.672;10.064;2023-04-01T00:52:18;20.00;;;9.37;;
3274;SDS011;1649;53.672;10.064;2023-04-01T00:54:47;17.90;;;8.90;;
3274;SDS011;1649;53.672;10.064;2023-04-01T00:57:25;20.13;;;9.80;;
3274;SDS011;1649;53.672;10.064;2023-04-01T00:59:55;17.03;;;8.67;;
3274;SDS011;1649;53.672;10.064;2023-04-01T01:02:21;17.77;;;9.10;;
3274;SDS011;1649;53.672;10.064;2023-04-01T01:04:47;14.70;;;8.97;;
3274;SDS011;1649;53.672;10.064;2023-04-01T01:07:21;18.33;;;9.37;;
3274;SDS011;1649;53.672;10.064;2023-04-01T01:12:37;17.53;;;9.23;;
3274;SDS011;1649;53.672;10.064;2023-04-01T01:15:11;17.87;;;9.00;;
3274;SDS011;1649;53.672;10.064;2023-04-01T01:20:24;19.10;;;9.87;;
3274;SDS011;1649;53.672;10.064;2023-04-01T01:29:03;21.80;;;10.60;;
3274;SDS011;1649;53.672;10.064;2023-04-01T01:31:44;22.80;;;11.27;;
3274;SDS011;1649;53.672;10.064;2023-04-01T01:34:53;21.77;;;10.53;;
3274;SDS011;1649;53.672;10.064;2023-04-01T01:37:41;20.40;;;10.07;;
3274;SDS011;1649;53.672;10.064;2023-04-01T01:40:09;21.13;;;10.63;;
3274;SDS011;1649;53.672;10.064;2023-04-01T01:42:38;27.27;;;10.40;;
3274;SDS011;1649;53.672;10.064;2023-04-01T01:45:08;18.10;;;10.23;;
3274;SDS011;1649;53.672;10.064;2023-04-01T01:47:36;21.50;;;9.70;;
3274;SDS011;1649;53.672;10.064;2023-04-01T01:50:03;21.63;;;11.20;;
3274;SDS011;1649;53.672;10.064;2023-04-01T01:52:30;19.70;;;10.33;;
3274;SDS011;1649;53.672;10.064;2023-04-01T01:54:56;21.47;;;10.80;;
3274;SDS011;1649;53.672;10.064;2023-04-01T01:57:30;19.87;;;10.13;;
3274;SDS011;1649;53.672;10.064;2023-04-01T01:59:59;21.40;;;10.23;;
3274;SDS011;1649;53.672;10.064;2023-04-01T02:02:29;19.70;;;11.03;;
3274;SDS011;1649;53.672;10.064;2023-04-01T02:04:57;23.17;;;10.97;;
3274;SDS011;1649;53.672;10.064;2023-04-01T02:07:24;19.70;;;10.83;;
3274;SDS011;1649;53.672;10.064;2023-04-01T02:09:53;24.57;;;10.63;;
3274;SDS011;1649;53.672;10.064;2023-04-01T02:12:19;21.80;;;9.83;;
3274;SDS011;1649;53.672;10.064;2023-04-01T02:17:38;18.80;;;10.33;;
3274;SDS011;1649;53.672;10.064;2023-04-01T02:20:26;25.73;;;11.47;;
3274;SDS011;1649;53.672;10.064;2023-04-01T02:22:54;20.83;;;10.40;;
3274;SDS011;1649;53.672;10.064;2023-04-01T02:25:23;24.90;;;10.80;;
3274;SDS011;1649;53.672;10.064;2023-04-01T02:27:52;18.70;;;10.33;;
3274;SDS011;1649;53.672;10.064;2023-04-01T02:30:19;26.70;;;11.90;;
3274;SDS011;1649;53.672;10.064;2023-04-01T02:32:46;25.97;;;12.00;;
3274;SDS011;1649;53.672;10.064;2023-04-01T02:35:13;25.53;;;11.67;;
3274;SDS011;1649;53.672;10.064;2023-04-01T02:37:41;17.30;;;10.40;;
3274;SDS011;1649;53.672;10.064;2023-04-01T02:40:09;18.63;;;9.87;;
3274;SDS011;1649;53.672;10.064;2023-04-01T02:42:37;18.83;;;10.23;;
3274;SDS011;1649;53.672;10.064;2023-04-01T02:45:03;23.07;;;10.70;;
3274;SDS011;1649;53.672;10.064;2023-04-01T02:47:29;21.93;;;11.83;;
3274;SDS011;1649;53.672;10.064;2023-04-01T02:49:55;20.20;;;11.10;;
3274;SDS011;1649;53.672;10.064;2023-04-01T02:52:26;18.30;;;10.20;;
3274;SDS011;1649;53.672;10.064;2023-04-01T02:54:52;23.43;;;10.37;;
3274;SDS011;1649;53.672;10.064;2023-04-01T02:57:18;23.80;;;10.50;;
3274;SDS011;1649;53.672;10.064;2023-04-01T02:59:43;23.83;;;11.93;;
3274;SDS011;1649;53.672;10.064;2023-04-01T03:02:09;21.60;;;11.47;;
3274;SDS011;1649;53.672;10.064;2023-04-01T03:04:35;18.87;;;10.60;;
3274;SDS011;1649;53.672;10.064;2023-04-01T03:07:00;23.23;;;11.80;;
3274;SDS011;1649;53.672;10.064;2023-04-01T03:09:26;24.03;;;13.03;;
3274;SDS011;1649;53.672;10.064;2023-04-01T03:11:51;26.30;;;11.27;;
3274;SDS011;1649;53.672;10.064;2023-04-01T03:14:17;23.13;;;11.70;;
3274;SDS011;1649;53.672;10.064;2023-04-01T03:16:42;29.07;;;13.17;;
3274;SDS011;1649;53.672;10.064;2023-04-01T03:19:08;26.03;;;12.40;;
3274;SDS011;1649;53.672;10.064;2023-04-01T03:21:34;26.20;;;11.57;;
3274;SDS011;1649;53.672;10.064;2023-04-01T03:23:59;28.33;;;13.23;;
3274;SDS011;1649;53.672;10.064;2023-04-01T03:26:25;28.60;;;14.27;;
3274;SDS011;1649;53.672;10.064;2023-04-01T03:28:52;24.37;;;13.67;;
3274;SDS011;1649;53.672;10.064;2023-04-01T03:31:17;29.00;;;13.10;;
3274;SDS011;1649;53.672;10.064;2023-04-01T03:33:43;26.27;;;13.70;;
3274;SDS011;1649;53.672;10.064;2023-04-01T03:36:09;27.80;;;13.97;;
3274;SDS011;1649;53.672;10.064;2023-04-01T03:38:37;27.37;;;12.67;;
3274;SDS011;1649;53.672;10.064;2023-04-01T03:41:02;28.30;;;13.40;;
3274;SDS011;1649;53.672;10.064;2023-04-01T03:43:28;26.93;;;13.77;;
3274;SDS011;1649;53.672;10.064;2023-04-01T03:45:54;26.10;;;11.47;;
3274;SDS011;1649;53.672;10.064;2023-04-01T03:48:19;23.13;;;12.40;;
3274;SDS011;1649;53.672;10.064;2023-04-01T03:50:45;23.10;;;13.00;;
3274;SDS011;1649;53.672;10.064;2023-04-01T03:53:12;29.47;;;14.10;;
3274;SDS011;1649;53.672;10.064;2023-04-01T03:55:38;28.80;;;12.50;;
3274;SDS011;1649;53.672;10.064;2023-04-01T03:58:05;24.10;;;12.77;;
3274;SDS011;1649;53.672;10.064;2023-04-01T04:00:31;27.23;;;12.60;;
3274;SDS011;1649;53.672;10.064;2023-04-01T04:02:57;32.57;;;13.70;;
3274;SDS011;1649;53.672;10.064;2023-04-01T04:05:24;24.30;;;12.47;;
3274;SDS011;1649;53.672;10.064;2023-04-01T04:07:50;27.43;;;11.87;;
3274;SDS011;1649;53.672;10.064;2023-04-01T04:10:16;25.87;;;12.70;;
3274;SDS011;1649;53.672;10.064;2023-04-01T04:12:41;27.40;;;13.33;;
3274;SDS011;1649;53.672;10.064;2023-04-01T04:15:07;29.87;;;13.77;;
3274;SDS011;1649;53.672;10.064;2023-04-01T04:17:33;28.60;;;14.33;;
3274;SDS011;1649;53.672;10.064;2023-04-01T04:19:59;30.80;;;15.40;;
3274;SDS011;1649;53.672;10.064;2023-04-01T04:22:25;25.93;;;14.33;;
3274;SDS011;1649;53.672;10.064;2023-04-01T04:24:50;27.80;;;14.57;;
3274;SDS011;1649;53.672;10.064;2023-04-01T04:27:16;21.40;;;10.93;;
3274;SDS011;1649;53.672;10.064;2023-04-01T04:29:42;14.73;;;7.33;;
3274;SDS011;1649;53.672;10.064;2023-04-01T04:32:08;13.83;;;6.40;;
3274;SDS011;1649;53.672;10.064;2023-04-01T04:34:34;9.97;;;5.10;;
3274;SDS011;1649;53.672;10.064;2023-04-01T04:36:59;9.77;;;4.60;;
3274;SDS011;1649;53.672;10.064;2023-04-01T04:39:25;9.67;;;4.53;;
3274;SDS011;1649;53.672;10.064;2023-04-01T04:41:50;7.97;;;3.97;;
3274;SDS011;1649;53.672;10.064;2023-04-01T04:44:16;6.47;;;2.90;;
3274;SDS011;1649;53.672;10.064;2023-04-01T04:46:41;9.63;;;3.37;;
3274;SDS011;1649;53.672;10.064;2023-04-01T04:49:07;7.47;;;4.00;;
3274;SDS011;1649;53.672;10.064;2023-04-01T04:51:33;8.53;;;4.30;;
3274;SDS011;1649;53.672;10.064;2023-04-01T04:54:00;7.43;;;3.63;;
3274;SDS011;1649;53.672;10.064;2023-04-01T04:56:29;7.27;;;3.53;;
3274;SDS011;1649;53.672;10.064;2023-04-01T04:58:55;7.27;;;3.70;;
3274;SDS011;1649;53.672;10.064;2023-04-01T05:01:21;9.15;;;4.50;;
3274;SDS011;1649;53.672;10.064;2023-04-01T05:03:47;8.83;;;4.40;;
3274;SDS011;1649;53.672;10.064;2023-04-01T05:06:13;8.90;;;4.30;;
3274;SDS011;1649;53.672;10.064;2023-04-01T05:08:39;8.20;;;3.50;;
3274;SDS011;1649;53.672;10.064;2023-04-01T05:11:07;8.40;;;4.10;;
3274;SDS011;1649;53.672;10.064;2023-04-01T05:13:37;7.17;;;4.00;;
3274;SDS011;1649;53.672;10.064;2023-04-01T05:16:03;6.73;;;4.00;;
3274;SDS011;1649;53.672;10.064;2023-04-01T05:18:33;8.20;;;4.53;;
3274;SDS011;1649;53.672;10.064;2023-04-01T05:20:59;7.93;;;3.67;;
3274;SDS011;1649;53.672;10.064;2023-04-01T05:23:24;8.23;;;3.97;;
3274;SDS011;1649;53.672;10.064;2023-04-01T05:25:50;7.87;;;4.30;;
3274;SDS011;1649;53.672;10.064;2023-04-01T05:28:17;6.57;;;3.60;;
3274;SDS011;1649;53.672;10.064;2023-04-01T05:30:43;9.83;;;4.87;;
3274;SDS011;1649;53.672;10.064;2023-04-01T05:33:10;7.50;;;3.90;;
3274;SDS011;1649;53.672;10.064;2023-04-01T05:35:36;6.70;;;3.80;;
3274;SDS011;1649;53.672;10.064;2023-04-01T05:38:02;8.60;;;4.07;;
3274;SDS011;1649;53.672;10.064;2023-04-01T05:40:28;7.60;;;3.73;;
3274;SDS011;1649;53.672;10.064;2023-04-01T05:42:54;7.33;;;3.80;;
3274;SDS011;1649;53.672;10.064;2023-04-01T05:45:19;6.57;;;3.87;;
3274;SDS011;1649;53.672;10.064;2023-04-01T05:47:45;6.17;;;3.10;;
3274;SDS011;1649;53.672;10.064;2023-04-01T05:50:10;7.27;;;3.07;;
3274;SDS011;1649;53.672;10.064;2023-04-01T05:52:37;5.77;;;2.90;;
3274;SDS011;1649;53.672;10.064;2023-04-01T05:55:02;5.90;;;2.70;;
3274;SDS011;1649;53.672;10.064;2023-04-01T05:57:28;7.00;;;3.23;;
3274;SDS011;1649;53.672;10.064;2023-04-01T05:59:54;6.37;;;3.27;;
3274;SDS011;1649;53.672;10.064;2023-04-01T06:02:20;7.17;;;3.30;;
3274;SDS011;1649;53.672;10.064;2023-04-01T06:04:45;6.30;;;3.30;;
3274;SDS011;1649;53.672;10.064;2023-04-01T06:07:12;7.40;;;3.10;;
3274;SDS011;1649;53.672;10.064;2023-04-01T06:09:38;6.43;;;3.50;;
3274;SDS011;1649;53.672;10.064;2023-04-01T06:17:56;6.27;;;2.67;;
3274;SDS011;1649;53.672;10.064;2023-04-01T06:31:24;5.60;;;2.97;;
3274;SDS011;1649;53.672;10.064;2023-04-01T06:39:27;7.37;;;2.80;;
3274;SDS011;1649;53.672;10.064;2023-04-01T06:44:49;5.97;;;2.50;;
3274;SDS011;1649;53.672;10.064;2023-04-01T06:56:23;6.70;;;3.30;;
3274;SDS011;1649;53.672;10.064;2023-04-01T07:01:49;7.13;;;3.10;;
3274;SDS011;1649;53.672;10.064;2023-04-01T07:04:22;6.13;;;2.70;;
3274;SDS011;1649;53.672;10.064;2023-04-01T07:09:24;6.13;;;2.97;;
3274;SDS011;1649;53.672;10.064;2023-04-01T07:11:56;5.23;;;2.50;;
3274;SDS011;1649;53.672;10.064;2023-04-01T07:14:37;6.47;;;2.53;;
3274;SDS011;1649;53.672;10.064;2023-04-01T07:17:15;6.30;;;2.63;;
3274;SDS011;1649;53.672;10.064;2023-04-01T07:19:51;6.03;;;2.53;;
3274;SDS011;1649;53.672;10.064;2023-04-01T07:22:32;6.30;;;2.10;;
3274;SDS011;1649;53.672;10.064;2023-04-01T07:27:53;7.40;;;2.80;;
3274;SDS011;1649;53.672;10.064;2023-04-01T07:30:25;7.13;;;2.73;;
3274;SDS011;1649;53.672;10.064;2023-04-01T07:33:11;6.50;;;2.90;;
3274;SDS011;1649;53.672;10.064;2023-04-01T07:36:13;7.70;;;3.63;;
3274;SDS011;1649;53.672;10.064;2023-04-01T07:42:06;6.00;;;2.90;;
3274;SDS011;1649;53.672;10.064;2023-04-01T07:55:11;6.67;;;3.17;;
3274;SDS011;1649;53.672;10.064;2023-04-01T08:06:26;6.63;;;2.53;;
3274;SDS011;1649;53.672;10.064;2023-04-01T08:09:14;6.00;;;2.50;;
3274;SDS011;1649;53.672;10.064;2023-04-01T08:11:59;6.60;;;2.80;;
3274;SDS011;1649;53.672;10.064;2023-04-01T08:14:33;5.30;;;2.70;;
3274;SDS011;1649;53.672;10.064;2023-04-01T08:22:42;5.80;;;3.10;;
3274;SDS011;1649;53.672;10.064;2023-04-01T08:25:20;7.27;;;3.87;;
3274;SDS011;1649;53.672;10.064;2023-04-01T08:30:25;5.60;;;2.80;;
3274;SDS011;1649;53.672;10.064;2023-04-01T08:35:51;4.77;;;2.23;;
3274;SDS011;1649;53.672;10.064;2023-04-01T08:38:40;5.00;;;2.30;;
3274;SDS011;1649;53.672;10.064;2023-04-01T08:50:52;5.93;;;2.60;;
3274;SDS011;1649;53.672;10.064;2023-04-01T08:58:31;4.70;;;2.23;;
3274;SDS011;1649;53.672;10.064;2023-04-01T09:07:29;5.23;;;2.43;;
3274;SDS011;1649;53.672;10.064;2023-04-01T09:10:10;4.70;;;1.87;;
3274;SDS011;1649;53.672;10.064;2023-04-01T09:16:02;5.50;;;2.17;;
3274;SDS011;1649;53.672;10.064;2023-04-01T09:19:04;5.60;;;2.17;;
3274;SDS011;1649;53.672;10.064;2023-04-01T09:24:40;5.00;;;2.10;;
3274;SDS011;1649;53.672;10.064;2023-04-01T09:27:36;4.40;;;1.80;;
3274;SDS011;1649;53.672;10.064;2023-04-01T09:30:41;5.17;;;2.00;;
3274;SDS011;1649;53.672;10.064;2023-04-01T09:41:41;4.70;;;2.10;;
3274;SDS011;1649;53.672;10.064;2023-04-01T09:44:35;4.80;;;2.27;;
3274;SDS011;1649;53.672;10.064;2023-04-01T09:47:26;4.77;;;2.47;;
3274;SDS011;1649;53.672;10.064;2023-04-01T09:55:57;4.97;;;2.67;;
3274;SDS011;1649;53.672;10.064;2023-04-01T09:58:45;4.70;;;1.90;;
3274;SDS011;1649;53.672;10.064;2023-04-01T10:04:40;3.93;;;1.87;;
3274;SDS011;1649;53.672;10.064;2023-04-01T10:07:37;5.53;;;1.80;;
3274;SDS011;1649;53.672;10.064;2023-04-01T10:42:03;4.73;;;2.50;;
3274;SDS011;1649;53.672;10.064;2023-04-01T10:44:56;5.27;;;2.70;;
3274;SDS011;1649;53.672;10.064;2023-04-01T10:48:07;4.40;;;2.30;;
3274;SDS011;1649;53.672;10.064;2023-04-01T10:56:20;5.13;;;2.87;;
3274;SDS011;1649;53.672;10.064;2023-04-01T11:10:54;6.57;;;2.97;;
3274;SDS011;1649;53.672;10.064;2023-04-01T11:13:49;6.80;;;3.10;;
3274;SDS011;1649;53.672;10.064;2023-04-01T11:37:57;10.07;;;5.90;;
3274;SDS011;1649;53.672;10.064;2023-04-01T11:43:34;8.77;;;5.80;;
3274;SDS011;1649;53.672;10.064;2023-04-01T11:46:14;10.97;;;6.10;;
3274;SDS011;1649;53.672;10.064;2023-04-01T11:49:00;9.07;;;5.90;;
3274;SDS011;1649;53.672;10.064;2023-04-01T11:59:30;9.77;;;6.00;;
3274;SDS011;1649;53.672;10.064;2023-04-01T12:05:20;9.90;;;5.53;;
3274;SDS011;1649;53.672;10.064;2023-04-01T12:10:19;11.10;;;6.57;;
3274;SDS011;1649;53.672;10.064;2023-04-01T12:35:05;14.10;;;6.93;;
3274;SDS011;1649;53.672;10.064;2023-04-01T12:40:39;12.30;;;7.70;;
3274;SDS011;1649;53.672;10.064;2023-04-01T12:43:28;12.03;;;7.40;;
3274;SDS011;1649;53.672;10.064;2023-04-01T12:52:12;10.50;;;6.67;;
3274;SDS011;1649;53.672;10.064;2023-04-01T12:55:01;14.43;;;7.47;;
3274;SDS011;1649;53.672;10.064;2023-04-01T13:01:09;11.00;;;6.43;;
3274;SDS011;1649;53.672;10.064;2023-04-01T13:09:31;12.10;;;6.87;;
3274;SDS011;1649;53.672;10.064;2023-04-01T13:12:15;10.80;;;7.00;;
3274;SDS011;1649;53.672;10.064;2023-04-01T13:14:58;10.30;;;6.50;;
3274;SDS011;1649;53.672;10.064;2023-04-01T13:17:50;11.57;;;6.97;;
3274;SDS011;1649;53.672;10.064;2023-04-01T13:22:58;10.63;;;6.37;;
3274;SDS011;1649;53.672;10.064;2023-04-01T13:28:17;13.70;;;6.97;;
3274;SDS011;1649;53.672;10.064;2023-04-01T13:31:05;11.17;;;6.93;;
3274;SDS011;1649;53.672;10.064;2023-04-01T13:33:47;11.53;;;5.40;;
3274;SDS011;1649;53.672;10.064;2023-04-01T13:36:28;14.67;;;6.97;;
3274;SDS011;1649;53.672;10.064;2023-04-01T13:41:52;14.90;;;6.20;;
3274;SDS011;1649;53.672;10.064;2023-04-01T13:44:48;10.77;;;6.07;;
3274;SDS011;1649;53.672;10.064;2023-04-01T13:47:28;12.30;;;6.20;;
3274;SDS011;1649;53.672;10.064;2023-04-01T13:52:42;10.90;;;5.97;;
3274;SDS011;1649;53.672;10.064;2023-04-01T13:55:30;12.80;;;6.00;;
3274;SDS011;1649;53.672;10.064;2023-04-01T14:09:33;11.87;;;6.90;;
3274;SDS011;1649;53.672;10.064;2023-04-01T14:20:40;11.00;;;6.40;;
3274;SDS011;1649;53.672;10.064;2023-04-01T14:28:16;12.40;;;6.87;;
3274;SDS011;1649;53.672;10.064;2023-04-01T14:39:20;12.43;;;6.27;;
3274;SDS011;1649;53.672;10.064;2023-04-01T14:44:59;10.63;;;6.47;;
3274;SDS011;1649;53.672;10.064;2023-04-01T14:50:15;11.30;;;7.03;;
3274;SDS011;1649;53.672;10.064;2023-04-01T14:53:30;9.43;;;6.80;;
3274;SDS011;1649;53.672;10.064;2023-04-01T14:55:51;11.57;;;6.60;;
3274;SDS011;1649;53.672;10.064;2023-04-01T14:58:19;11.17;;;5.90;;
3274;SDS011;1649;53.672;10.064;2023-04-01T15:03:37;10.37;;;6.23;;
3274;SDS011;1649;53.672;10.064;2023-04-01T15:14:39;12.83;;;6.60;;
3274;SDS011;1649;53.672;10.064;2023-04-01T15:17:47;14.07;;;6.40;;
3274;SDS011;1649;53.672;10.064;2023-04-01T15:31:57;13.57;;;6.83;;
3274;SDS011;1649;53.672;10.064;2023-04-01T15:34:56;11.80;;;7.17;;
3274;SDS011;1649;53.672;10.064;2023-04-01T15:45:41;13.03;;;6.80;;
3274;SDS011;1649;53.672;10.064;2023-04-01T15:48:24;10.47;;;6.40;;
3274;SDS011;1649;53.672;10.064;2023-04-01T15:51:21;12.70;;;5.83;;
3274;SDS011;1649;53.672;10.064;2023-04-01T15:54:23;13.10;;;7.20;;
3274;SDS011;1649;53.672;10.064;2023-04-01T15:59:53;11.50;;;6.77;;
3274;SDS011;1649;53.672;10.064;2023-04-01T16:05:22;12.60;;;7.13;;
3274;SDS011;1649;53.672;10.064;2023-04-01T16:13:18;12.83;;;7.80;;
3274;SDS011;1649;53.672;10.064;2023-04-01T16:18:50;13.27;;;7.83;;
3274;SDS011;1649;53.672;10.064;2023-04-01T16:22:17;16.63;;;8.50;;
3274;SDS011;1649;53.672;10.064;2023-04-01T16:24:30;15.63;;;7.57;;
3274;SDS011;1649;53.672;10.064;2023-04-01T16:27:02;13.77;;;8.37;;
3274;SDS011;1649;53.672;10.064;2023-04-01T16:29:41;12.10;;;7.20;;
3274;SDS011;1649;53.672;10.064;2023-04-01T16:32:29;15.77;;;7.77;;
3274;SDS011;1649;53.672;10.064;2023-04-01T16:35:22;11.73;;;7.50;;
3274;SDS011;1649;53.672;10.064;2023-04-01T16:40:52;16.07;;;8.40;;
3274;SDS011;1649;53.672;10.064;2023-04-01T16:46:18;18.20;;;8.77;;
3274;SDS011;1649;53.672;10.064;2023-04-01T16:49:15;14.10;;;8.60;;
3274;SDS011;1649;53.672;10.064;2023-04-01T16:51:54;14.67;;;8.13;;
3274;SDS011;1649;53.672;10.064;2023-04-01T16:54:30;18.13;;;8.50;;
3274;SDS011;1649;53.672;10.064;2023-04-01T16:59:47;19.60;;;7.87;;
3274;SDS011;1649;53.672;10.064;2023-04-01T17:02:31;16.90;;;8.37;;
3274;SDS011;1649;53.672;10.064;2023-04-01T17:05:03;14.47;;;7.10;;
3274;SDS011;1649;53.672;10.064;2023-04-01T17:13:14;11.47;;;6.93;;
3274;SDS011;1649;53.672;10.064;2023-04-01T17:24:31;12.80;;;7.90;;
3274;SDS011;1649;53.672;10.064;2023-04-01T17:33:10;12.57;;;6.50;;
3274;SDS011;1649;53.672;10.064;2023-04-01T17:35:58;16.57;;;6.20;;
3274;SDS011;1649;53.672;10.064;2023-04-01T17:46:50;12.20;;;5.40;;
3274;SDS011;1649;53.672;10.064;2023-04-01T17:55:04;8.30;;;5.10;;
3274;SDS011;1649;53.672;10.064;2023-04-01T17:58:04;9.23;;;5.70;;
3274;SDS011;1649;53.672;10.064;2023-04-01T18:06:07;11.20;;;5.53;;
3274;SDS011;1649;53.672;10.064;2023-04-01T18:11:56;13.87;;;8.20;;
3274;SDS011;1649;53.672;10.064;2023-04-01T18:17:18;9.90;;;6.00;;
3274;SDS011;1649;53.672;10.064;2023-04-01T18:20:25;12.43;;;6.37;;
3274;SDS011;1649;53.672;10.064;2023-04-01T18:23:14;12.10;;;6.70;;
3274;SDS011;1649;53.672;10.064;2023-04-01T18:26:10;11.07;;;5.60;;
3274;SDS011;1649;53.672;10.064;2023-04-01T18:28:50;10.07;;;4.70;;
3274;SDS011;1649;53.672;10.064;2023-04-01T18:31:23;8.70;;;5.13;;
3274;SDS011;1649;53.672;10.064;2023-04-01T18:42:00;10.80;;;5.50;;
3274;SDS011;1649;53.672;10.064;2023-04-01T18:44:50;11.83;;;5.50;;
3274;SDS011;1649;53.672;10.064;2023-04-01T18:47:42;11.53;;;6.17;;
3274;SDS011;1649;53.672;10.064;2023-04-01T18:50:50;9.27;;;5.13;;
3274;SDS011;1649;53.672;10.064;2023-04-01T18:56:12;13.27;;;5.23;;
3274;SDS011;1649;53.672;10.064;2023-04-01T19:01:45;8.97;;;5.30;;
3274;SDS011;1649;53.672;10.064;2023-04-01T19:04:34;8.30;;;4.70;;
3274;SDS011;1649;53.672;10.064;2023-04-01T19:07:26;15.57;;;5.30;;
3274;SDS011;1649;53.672;10.064;2023-04-01T19:10:55;12.93;;;4.50;;
3274;SDS011;1649;53.672;10.064;2023-04-01T19:18:36;11.07;;;5.20;;
3274;SDS011;1649;53.672;10.064;2023-04-01T19:21:11;12.90;;;5.57;;
3274;SDS011;1649;53.672;10.064;2023-04-01T19:26:20;7.70;;;4.63;;
3274;SDS011;1649;53.672;10.064;2023-04-01T19:29:20;9.70;;;4.43;;
3274;SDS011;1649;53.672;10.064;2023-04-01T19:37:45;10.20;;;5.40;;
3274;SDS011;1649;53.672;10.064;2023-04-01T19:46:36;12.33;;;5.97;;
3274;SDS011;1649;53.672;10.064;2023-04-01T19:54:40;6.80;;;4.67;;
3274;SDS011;1649;53.672;10.064;2023-04-01T19:57:13;11.00;;;4.50;;
3274;SDS011;1649;53.672;10.064;2023-04-01T19:59:56;10.03;;;5.20;;
3274;SDS011;1649;53.672;10.064;2023-04-01T20:02:51;11.80;;;4.50;;
3274;SDS011;1649;53.672;10.064;2023-04-01T20:08:20;11.30;;;4.30;;
3274;SDS011;1649;53.672;10.064;2023-04-01T20:11:14;8.33;;;4.40;;
3274;SDS011;1649;53.672;10.064;2023-04-01T20:13:44;9.07;;;4.20;;
3274;SDS011;1649;53.672;10.064;2023-04-01T20:16:21;8.77;;;4.63;;
3274;SDS011;1649;53.672;10.064;2023-04-01T20:21:34;7.43;;;4.23;;
3274;SDS011;1649;53.672;10.064;2023-04-01T20:26:50;9.70;;;4.40;;
3274;SDS011;1649;53.672;10.064;2023-04-01T20:29:30;7.23;;;3.90;;
3274;SDS011;1649;53.672;10.064;2023-04-01T20:37:35;7.80;;;4.10;;
3274;SDS011;1649;53.672;10.064;2023-04-01T20:51:13;9.00;;;4.27;;
3274;SDS011;1649;53.672;10.064;2023-04-01T20:54:05;11.80;;;4.70;;
3274;SDS011;1649;53.672;10.064;2023-04-01T20:56:54;11.73;;;4.97;;
3274;SDS011;1649;53.672;10.064;2023-04-01T20:59:47;8.53;;;4.50;;
3274;SDS011;1649;53.672;10.064;2023-04-01T21:05:08;8.50;;;3.80;;
3274;SDS011;1649;53.672;10.064;2023-04-01T21:07:49;13.33;;;4.40;;
3274;SDS011;1649;53.672;10.064;2023-04-01T21:29:40;7.20;;;3.40;;
3274;SDS011;1649;53.672;10.064;2023-04-01T21:32:45;12.83;;;3.83;;
3274;SDS011;1649;53.672;10.064;2023-04-01T21:43:30;6.10;;;3.13;;
3274;SDS011;1649;53.672;10.064;2023-04-01T21:49:21;7.57;;;3.00;;
3274;SDS011;1649;53.672;10.064;2023-04-01T22:00:32;6.73;;;3.40;;
3274;SDS011;1649;53.672;10.064;2023-04-01T22:08:37;7.77;;;3.17;;
3274;SDS011;1649;53.672;10.064;2023-04-01T22:11:19;6.07;;;2.97;;
3274;SDS011;1649;53.672;10.064;2023-04-01T22:14:02;6.03;;;3.07;;
3274;SDS011;1649;53.672;10.064;2023-04-01T22:19:16;8.93;;;3.17;;
3274;SDS011;1649;53.672;10.064;2023-04-01T22:30:59;10.83;;;3.30;;
3274;SDS011;1649;53.672;10.064;2023-04-01T22:33:48;4.93;;;2.20;;
3274;SDS011;1649;53.672;10.064;2023-04-01T22:36:28;8.67;;;3.00;;
3274;SDS011;1649;53.672;10.064;2023-04-01T22:44:48;7.00;;;2.53;;
3274;SDS011;1649;53.672;10.064;2023-04-01T22:49:47;7.50;;;2.23;;
3274;SDS011;1649;53.672;10.064;2023-04-01T22:52:28;6.57;;;2.20;;
3274;SDS011;1649;53.672;10.064;2023-04-01T22:54:59;5.50;;;2.30;;
3274;SDS011;1649;53.672;10.064;2023-04-01T22:57:35;6.90;;;2.47;;
3274;SDS011;1649;53.672;10.064;2023-04-01T23:00:12;9.93;;;2.20;;
3274;SDS011;1649;53.672;10.064;2023-04-01T23:02:59;5.97;;;2.90;;
3274;SDS011;1649;53.672;10.064;2023-04-01T23:05:31;6.60;;;2.50;;
3274;SDS011;1649;53.672;10.064;2023-04-01T23:10:56;10.60;;;2.50;;
3274;SDS011;1649;53.672;10.064;2023-04-01T23:13:31;4.60;;;1.93;;
3274;SDS011;1649;53.672;10.064;2023-04-01T23:16:02;4.53;;;1.83;;
3274;SDS011;1649;53.672;10.064;2023-04-01T23:18:36;4.40;;;2.03;;
3274;SDS011;1649;53.672;10.064;2023-04-01T23:26:59;4.70;;;2.10;;
3274;SDS011;1649;53.672;10.064;2023-04-01T23:29:26;6.10;;;2.30;;
3274;SDS011;1649;53.672;10.064;2023-04-01T23:31:59;5.13;;;2.03;;
3274;SDS011;1649;53.672;10.064;2023-04-01T23:34:34;8.20;;;2.33;;
3274;SDS011;1649;53.672;10.064;2023-04-01T23:37:04;8.00;;;2.50;;
3274;SDS011;1649;53.672;10.064;2023-04-01T23:39:35;5.63;;;2.23;;
3274;SDS011;1649;53.672;10.064;2023-04-01T23:44:44;7.90;;;2.60;;
3274;SDS011;1649;53.672;10.064;2023-04-01T23:47:16;7.77;;;2.47;;
3274;SDS011;1649;53.672;10.064;2023-04-01T23:49:58;4.97;;;2.00;;
3274;SDS011;1649;53.672;10.064;2023-04-01T23:52:39;6.77;;;2.13;;
3274;SDS011;1649;53.672;10.064;2023-04-01T23:57:35;9.60;;;2.75;;
